createdAt,value
2018-09-26T00:01:40.260Z,12.67
2018-09-26T00:04:11.256Z,4.80
2018-09-26T00:06:39.620Z,8.67
2018-09-26T00:09:10.424Z,10.60
2018-09-26T00:11:38.941Z,11.33
2018-09-26T00:14:07.328Z,12.80
2018-09-26T00:16:35.874Z,20.27
2018-09-26T00:19:04.275Z,8.30
2018-09-26T00:21:32.624Z,6.50
2018-09-26T00:24:00.977Z,6.90
2018-09-26T00:26:29.318Z,8.20
2018-09-26T00:28:57.660Z,5.47
2018-09-26T00:31:26.137Z,6.77
2018-09-26T00:33:54.497Z,9.70
2018-09-26T00:36:22.890Z,8.83
2018-09-26T00:38:51.269Z,8.93
2018-09-26T00:41:19.604Z,6.47
2018-09-26T00:43:48.156Z,7.80
2018-09-26T00:46:16.464Z,9.20
2018-09-26T00:48:44.837Z,5.73
2018-09-26T00:51:13.147Z,11.27
2018-09-26T00:53:41.505Z,12.13
2018-09-26T00:56:09.824Z,16.73
2018-09-26T00:58:38.180Z,9.07
2018-09-26T01:01:06.516Z,7.33
2018-09-26T01:03:34.848Z,11.33
2018-09-26T01:06:03.167Z,11.07
2018-09-26T01:08:31.494Z,9.73
2018-09-26T01:10:59.807Z,8.67
2018-09-26T01:13:28.431Z,8.10
2018-09-26T01:15:56.759Z,7.60
2018-09-26T01:18:25.068Z,10.67
2018-09-26T01:20:53.404Z,7.40
2018-09-26T01:23:21.719Z,11.17
2018-09-26T01:25:50.064Z,8.30
2018-09-26T01:28:18.368Z,9.00
2018-09-26T01:30:46.700Z,9.87
2018-09-26T01:33:15.020Z,7.20
2018-09-26T01:35:43.420Z,9.43
2018-09-26T01:38:11.728Z,10.63
2018-09-26T01:40:40.064Z,8.27
2018-09-26T01:43:08.364Z,9.10
2018-09-26T01:45:36.716Z,5.13
2018-09-26T01:48:05.045Z,4.93
2018-09-26T01:50:33.405Z,6.00
2018-09-26T01:53:01.729Z,7.63
2018-09-26T01:55:30.120Z,8.00
2018-09-26T01:57:58.449Z,6.73
2018-09-26T02:00:26.801Z,8.07
2018-09-26T02:02:55.124Z,7.80
2018-09-26T02:05:23.489Z,7.60
2018-09-26T02:07:51.993Z,4.87
2018-09-26T02:10:20.388Z,8.63
2018-09-26T02:12:48.719Z,9.90
2018-09-26T02:15:17.133Z,9.83
2018-09-26T02:17:45.489Z,6.20
2018-09-26T02:20:13.833Z,5.20
2018-09-26T02:22:42.208Z,14.47
2018-09-26T02:25:10.537Z,9.30
2018-09-26T02:27:38.905Z,7.70
2018-09-26T02:30:07.409Z,6.50
2018-09-26T02:32:35.748Z,9.83
2018-09-26T02:35:04.114Z,8.07
2018-09-26T02:37:33.477Z,7.20
2018-09-26T02:40:01.844Z,5.80
2018-09-26T02:42:30.213Z,12.27
2018-09-26T02:44:58.560Z,4.93
2018-09-26T02:47:26.963Z,8.60
2018-09-26T02:49:55.291Z,10.77
2018-09-26T02:52:23.640Z,13.43
2018-09-26T02:54:51.964Z,6.20
2018-09-26T02:57:20.315Z,5.60
2018-09-26T02:59:48.644Z,11.50
2018-09-26T03:02:17.036Z,6.20
2018-09-26T03:04:45.356Z,7.53
2018-09-26T03:07:13.683Z,5.30
2018-09-26T03:09:42.036Z,9.10
2018-09-26T03:12:10.355Z,5.83
2018-09-26T03:14:38.900Z,7.03
2018-09-26T03:17:07.320Z,4.13
2018-09-26T03:19:35.683Z,7.17
2018-09-26T03:22:04.349Z,7.23
2018-09-26T03:24:32.696Z,5.80
2018-09-26T03:27:01.016Z,10.00
2018-09-26T03:29:29.360Z,7.87
2018-09-26T03:31:57.681Z,7.40
2018-09-26T03:34:26.280Z,4.80
2018-09-26T03:36:54.602Z,5.47
2018-09-26T03:39:22.960Z,8.73
2018-09-26T03:41:51.292Z,14.17
2018-09-26T03:44:19.687Z,5.50
2018-09-26T03:46:48.000Z,6.13
2018-09-26T03:49:16.400Z,14.80
2018-09-26T03:51:44.718Z,8.23
2018-09-26T03:54:13.068Z,3.73
2018-09-26T03:56:41.396Z,10.17
2018-09-26T03:59:09.749Z,7.20
2018-09-26T04:01:38.080Z,4.27
2018-09-26T04:04:06.677Z,9.50
2018-09-26T04:06:35.000Z,5.10
2018-09-26T04:09:03.824Z,5.93
2018-09-26T04:11:32.160Z,5.90
2018-09-26T04:14:00.476Z,5.20
2018-09-26T04:16:28.856Z,8.17
2018-09-26T04:18:57.216Z,14.47
2018-09-26T04:21:25.551Z,8.70
2018-09-26T04:23:53.887Z,5.47
2018-09-26T04:26:22.304Z,5.07
2018-09-26T04:28:50.596Z,6.80
2018-09-26T04:31:18.956Z,5.17
2018-09-26T04:33:47.327Z,6.30
2018-09-26T04:36:15.647Z,9.87
2018-09-26T04:38:44.028Z,14.40
2018-09-26T04:41:12.356Z,6.73
2018-09-26T04:43:40.701Z,9.90
2018-09-26T04:46:09.026Z,11.43
2018-09-26T04:48:37.325Z,5.43
2018-09-26T04:51:05.678Z,9.33
2018-09-26T04:53:34.081Z,6.93
2018-09-26T04:56:02.362Z,7.93
2018-09-26T04:58:30.719Z,6.20
2018-09-26T05:00:59.096Z,12.73
2018-09-26T05:03:27.580Z,7.53
2018-09-26T05:05:55.905Z,9.60
2018-09-26T05:08:24.344Z,9.00
2018-09-26T05:10:52.612Z,9.23
2018-09-26T05:13:21.019Z,7.67
2018-09-26T05:15:49.383Z,7.97
2018-09-26T05:18:17.749Z,7.57
2018-09-26T05:20:46.072Z,11.47
2018-09-26T05:23:14.445Z,5.50
2018-09-26T05:25:42.751Z,9.87
2018-09-26T05:28:11.116Z,11.10
2018-09-26T05:30:39.440Z,10.73
2018-09-26T05:33:07.820Z,10.60
2018-09-26T05:35:36.135Z,9.73
2018-09-26T05:38:04.496Z,12.23
2018-09-26T05:40:32.816Z,9.70
2018-09-26T05:43:01.678Z,17.90
2018-09-26T05:45:30.088Z,8.93
2018-09-26T05:47:58.443Z,12.37
2018-09-26T05:50:26.799Z,11.40
2018-09-26T05:52:55.099Z,10.37
2018-09-26T05:55:23.423Z,14.47
2018-09-26T05:57:51.719Z,12.40
2018-09-26T06:00:20.047Z,22.73
2018-09-26T06:02:48.375Z,18.20
2018-09-26T06:05:16.710Z,23.00
2018-09-26T06:07:45.802Z,14.47
2018-09-26T06:10:14.139Z,13.37
2018-09-26T06:12:42.502Z,15.93
2018-09-26T06:15:10.821Z,19.73
2018-09-26T06:17:39.119Z,16.47
2018-09-26T06:20:08.734Z,18.83
2018-09-26T06:22:37.027Z,23.10
2018-09-26T06:25:05.563Z,15.33
2018-09-26T06:27:34.495Z,22.40
2018-09-26T06:30:03.063Z,19.30
2018-09-26T06:32:31.366Z,19.60
2018-09-26T06:34:59.731Z,22.67
2018-09-26T06:37:28.038Z,21.77
2018-09-26T06:39:56.651Z,18.23
2018-09-26T06:42:24.958Z,22.17
2018-09-26T06:44:53.251Z,24.07
2018-09-26T06:47:21.578Z,19.00
2018-09-26T06:49:49.924Z,18.03
2018-09-26T06:52:18.335Z,22.93
2018-09-26T06:54:46.689Z,18.40
2018-09-26T06:57:15.053Z,24.70
2018-09-26T06:59:43.376Z,17.67
2018-09-26T07:02:11.764Z,16.73
2018-09-26T07:04:40.092Z,18.53
2018-09-26T07:07:08.436Z,19.10
2018-09-26T07:09:36.772Z,18.90
2018-09-26T07:12:05.138Z,19.30
2018-09-26T07:14:33.456Z,15.93
2018-09-26T07:17:01.801Z,23.37
2018-09-26T07:19:30.141Z,18.93
2018-09-26T07:21:58.487Z,15.40
2018-09-26T07:24:26.847Z,17.47
2018-09-26T07:26:55.212Z,17.77
2018-09-26T07:29:23.560Z,22.30
2018-09-26T07:31:51.909Z,16.00
2018-09-26T07:34:25.433Z,16.23
2018-09-26T07:36:53.857Z,19.93
2018-09-26T07:39:22.202Z,16.50
2018-09-26T07:41:50.548Z,15.43
2018-09-26T07:44:18.894Z,16.40
2018-09-26T07:46:47.267Z,14.90
2018-09-26T07:49:15.768Z,16.63
2018-09-26T07:51:44.148Z,16.40
2018-09-26T07:54:12.540Z,14.13
2018-09-26T07:56:40.932Z,16.40
2018-09-26T07:59:09.360Z,13.70
2018-09-26T08:01:37.658Z,18.57
2018-09-26T08:04:06.020Z,15.30
2018-09-26T08:06:34.440Z,21.83
2018-09-26T08:09:02.845Z,15.37
2018-09-26T08:11:31.223Z,17.03
2018-09-26T08:13:59.572Z,15.50
2018-09-26T08:16:27.924Z,23.60
2018-09-26T08:18:56.281Z,15.40
2018-09-26T08:21:24.960Z,13.47
2018-09-26T08:23:53.371Z,14.77
2018-09-26T08:26:21.665Z,13.77
2018-09-26T08:28:50.021Z,24.73
2018-09-26T08:31:18.488Z,13.17
2018-09-26T08:33:46.868Z,14.63
2018-09-26T08:36:15.220Z,19.80
2018-09-26T08:38:43.585Z,15.07
2018-09-26T08:41:11.948Z,15.00
2018-09-26T08:43:40.337Z,14.00
2018-09-26T08:46:08.717Z,18.43
2018-09-26T08:48:37.101Z,13.93
2018-09-26T08:51:05.441Z,17.47
2018-09-26T08:53:33.878Z,18.13
2018-09-26T08:56:02.192Z,13.70
2018-09-26T08:58:30.564Z,16.13
2018-09-26T09:00:58.930Z,16.93
2018-09-26T09:03:27.300Z,13.30
2018-09-26T09:05:55.661Z,17.30
2018-09-26T09:08:24.032Z,20.63
2018-09-26T09:10:52.401Z,13.37
2018-09-26T09:13:20.740Z,13.43
2018-09-26T09:15:49.076Z,20.90
2018-09-26T09:18:17.867Z,13.80
2018-09-26T09:20:46.223Z,19.23
2018-09-26T09:23:14.565Z,14.37
2018-09-26T09:25:42.923Z,13.73
2018-09-26T09:28:11.279Z,13.70
2018-09-26T09:30:39.596Z,18.93
2018-09-26T09:33:07.947Z,14.47
2018-09-26T09:35:36.291Z,15.60
2018-09-26T09:38:04.645Z,18.37
2018-09-26T09:40:32.964Z,13.33
2018-09-26T09:43:01.289Z,17.40
2018-09-26T09:45:29.624Z,13.70
2018-09-26T09:47:57.959Z,14.00
2018-09-26T09:50:26.299Z,15.90
2018-09-26T09:52:54.959Z,19.53
2018-09-26T09:55:23.300Z,21.07
2018-09-26T09:57:51.612Z,17.13
2018-09-26T10:00:20.004Z,20.65
2018-09-26T10:02:48.455Z,14.13
2018-09-26T10:05:16.665Z,17.17
2018-09-26T10:07:44.984Z,12.87
2018-09-26T10:10:13.323Z,15.17
2018-09-26T10:12:41.658Z,17.60
2018-09-26T10:15:10.060Z,15.83
2018-09-26T10:17:38.459Z,23.60
2018-09-26T10:20:06.778Z,21.40
2018-09-26T10:22:35.100Z,20.37
2018-09-26T10:25:03.477Z,21.30
2018-09-26T10:27:31.815Z,16.60
2018-09-26T10:30:00.140Z,18.97
2018-09-26T10:32:28.478Z,21.93
2018-09-26T10:34:56.902Z,16.90
2018-09-26T10:37:25.204Z,20.03
2018-09-26T10:39:53.565Z,18.27
2018-09-26T10:42:21.892Z,17.90
2018-09-26T10:44:50.244Z,16.53
2018-09-26T10:47:19.465Z,16.43
2018-09-26T10:49:47.816Z,20.87
2018-09-26T10:52:16.156Z,16.60
2018-09-26T10:54:44.546Z,20.50
2018-09-26T10:57:12.884Z,15.83
2018-09-26T10:59:41.246Z,19.10
2018-09-26T11:02:09.692Z,17.57
2018-09-26T11:04:38.057Z,21.63
2018-09-26T11:07:06.347Z,18.03
2018-09-26T11:09:34.642Z,18.27
2018-09-26T11:12:02.930Z,21.50
2018-09-26T11:14:31.226Z,15.93
2018-09-26T11:16:59.568Z,21.87
2018-09-26T11:19:27.921Z,23.23
2018-09-26T11:21:56.302Z,31.83
2018-09-26T11:24:24.660Z,25.07
2018-09-26T11:26:52.988Z,16.50
2018-09-26T11:29:21.386Z,17.07
2018-09-26T11:31:49.732Z,21.20
2018-09-26T11:34:18.175Z,18.60
2018-09-26T11:36:46.521Z,21.23
2018-09-26T11:39:14.901Z,18.07
2018-09-26T11:41:43.299Z,20.10
2018-09-26T11:44:11.648Z,18.83
2018-09-26T11:46:39.977Z,17.93
2018-09-26T11:49:08.369Z,21.07
2018-09-26T11:51:36.710Z,17.50
2018-09-26T11:54:05.081Z,18.00
2018-09-26T11:56:33.420Z,23.33
2018-09-26T11:59:01.826Z,22.90
2018-09-26T12:01:30.161Z,17.83
2018-09-26T12:03:58.509Z,15.33
2018-09-26T12:06:26.850Z,16.30
2018-09-26T12:08:55.208Z,20.70
2018-09-26T12:11:23.619Z,18.00
2018-09-26T12:13:52.005Z,17.93
2018-09-26T12:16:20.319Z,17.17
2018-09-26T12:18:48.908Z,17.20
2018-09-26T12:21:17.320Z,15.90
2018-09-26T12:23:45.669Z,23.07
2018-09-26T12:26:14.040Z,18.73
2018-09-26T12:28:42.401Z,24.53
2018-09-26T12:31:10.733Z,20.17
2018-09-26T12:33:39.104Z,14.03
2018-09-26T12:36:07.728Z,23.97
2018-09-26T12:38:36.101Z,24.20
2018-09-26T12:41:04.453Z,17.73
2018-09-26T12:43:32.953Z,14.10
2018-09-26T12:46:01.571Z,17.10
2018-09-26T12:48:29.974Z,22.60
2018-09-26T12:50:58.328Z,13.73
2018-09-26T12:53:26.810Z,26.97
2018-09-26T12:55:55.105Z,15.93
2018-09-26T12:58:23.510Z,18.30
2018-09-26T13:00:51.825Z,15.80
2018-09-26T13:03:20.330Z,24.83
2018-09-26T13:05:48.692Z,15.03
2018-09-26T13:08:17.106Z,15.83
2018-09-26T13:10:45.436Z,14.27
2018-09-26T13:13:13.797Z,15.90
2018-09-26T13:15:42.168Z,17.73
2018-09-26T13:18:10.519Z,22.23
2018-09-26T13:20:38.898Z,13.70
2018-09-26T13:23:07.310Z,22.67
2018-09-26T13:25:35.842Z,20.10
2018-09-26T13:28:04.430Z,17.87
2018-09-26T13:30:32.760Z,17.97
2018-09-26T13:33:01.100Z,25.53
2018-09-26T13:35:29.464Z,21.47
2018-09-26T13:37:57.787Z,13.23
2018-09-26T13:40:26.213Z,25.20
2018-09-26T13:42:54.469Z,14.37
2018-09-26T13:45:22.853Z,19.43
2018-09-26T13:47:51.192Z,20.30
2018-09-26T13:50:19.645Z,21.93
2018-09-26T13:52:48.007Z,14.80
2018-09-26T13:55:16.381Z,18.60
2018-09-26T13:57:44.780Z,23.20
2018-09-26T14:00:16.074Z,27.37
2018-09-26T14:02:45.661Z,17.50
2018-09-26T14:05:14.033Z,19.53
2018-09-26T14:07:42.389Z,23.93
2018-09-26T14:10:10.777Z,16.80
2018-09-26T14:12:39.141Z,23.30
2018-09-26T14:15:07.845Z,19.50
2018-09-26T14:17:36.213Z,19.60
2018-09-26T14:20:04.706Z,23.50
2018-09-26T14:22:33.038Z,21.67
2018-09-26T14:25:01.402Z,21.00
2018-09-26T14:27:29.756Z,22.17
2018-09-26T14:29:58.121Z,17.13
2018-09-26T14:32:26.493Z,29.43
2018-09-26T14:34:54.852Z,26.53
2018-09-26T14:37:23.193Z,23.90
2018-09-26T14:39:51.633Z,22.43
2018-09-26T14:42:19.983Z,22.17
2018-09-26T14:44:48.368Z,24.97
2018-09-26T14:47:16.824Z,27.67
2018-09-26T14:49:45.199Z,21.13
2018-09-26T14:52:13.572Z,27.83
2018-09-26T14:54:42.181Z,19.97
2018-09-26T14:57:10.548Z,16.27
2018-09-26T14:59:38.897Z,19.20
2018-09-26T15:02:07.437Z,15.97
2018-09-26T15:04:35.820Z,20.20
2018-09-26T15:07:04.113Z,16.50
2018-09-26T15:09:32.464Z,25.87
2018-09-26T15:12:00.840Z,29.63
2018-09-26T15:14:29.187Z,20.03
2018-09-26T15:16:57.572Z,22.17
2018-09-26T15:19:26.205Z,25.90
2018-09-26T15:21:54.576Z,12.93
2018-09-26T15:24:23.005Z,13.97
2018-09-26T15:26:51.300Z,11.33
2018-09-26T15:29:19.632Z,22.87
2018-09-26T15:31:47.984Z,13.97
2018-09-26T15:34:16.319Z,18.33
2018-09-26T15:36:44.671Z,19.97
2018-09-26T15:39:12.971Z,11.97
2018-09-26T15:41:41.386Z,22.00
2018-09-26T15:44:09.658Z,25.73
2018-09-26T15:46:38.124Z,29.43
2018-09-26T15:49:07.007Z,15.00
2018-09-26T15:51:35.532Z,15.33
2018-09-26T15:54:03.868Z,14.43
2018-09-26T15:56:32.188Z,21.17
2018-09-26T15:59:01.232Z,22.97
2018-09-26T16:01:35.201Z,15.93
2018-09-26T16:04:03.495Z,14.67
2018-09-26T16:06:31.828Z,15.83
2018-09-26T16:09:00.110Z,23.07
2018-09-26T16:11:28.413Z,13.33
2018-09-26T16:13:56.744Z,14.53
2018-09-26T16:17:49.546Z,13.20
2018-09-26T16:20:17.964Z,15.50
2018-09-26T16:22:46.229Z,13.37
2018-09-26T16:25:14.581Z,16.00
2018-09-26T16:27:42.913Z,19.57
2018-09-26T16:30:11.633Z,21.53
2018-09-26T16:32:39.953Z,19.13
2018-09-26T16:37:58.656Z,11.67
2018-09-26T16:40:27.095Z,19.10
2018-09-26T16:42:55.327Z,16.77
2018-09-26T16:45:23.672Z,14.50
2018-09-26T16:47:52.011Z,18.63
2018-09-26T16:50:20.363Z,12.03
2018-09-26T16:52:48.872Z,15.03
2018-09-26T16:55:17.783Z,19.23
2018-09-26T16:57:46.200Z,13.27
2018-09-26T17:00:14.577Z,9.23
2018-09-26T17:02:42.936Z,16.43
2018-09-26T17:05:11.480Z,15.43
2018-09-26T17:07:39.818Z,16.17
2018-09-26T17:10:08.232Z,20.23
2018-09-26T17:12:36.743Z,21.03
2018-09-26T17:15:05.363Z,19.80
2018-09-26T17:17:33.689Z,21.20
2018-09-26T17:20:02.269Z,20.63
2018-09-26T17:22:30.747Z,24.30
2018-09-26T17:24:59.092Z,15.93
2018-09-26T17:27:27.596Z,24.70
2018-09-26T17:29:55.937Z,17.63
2018-09-26T17:32:25.632Z,26.97
2018-09-26T17:34:54.093Z,21.03
2018-09-26T17:37:22.425Z,12.40
2018-09-26T17:39:50.750Z,24.47
2018-09-26T17:42:19.430Z,25.63
2018-09-26T17:44:47.810Z,22.87
2018-09-26T17:47:16.083Z,32.73
2018-09-26T17:49:44.409Z,39.80
2018-09-26T17:52:12.718Z,21.40
2018-09-26T17:54:41.222Z,25.97
2018-09-26T17:57:09.630Z,29.00
2018-09-26T17:59:37.935Z,22.07
2018-09-26T18:02:06.248Z,45.47
2018-09-26T18:04:34.607Z,39.07
2018-09-26T18:07:03.800Z,31.23
2018-09-26T18:09:32.114Z,25.33
2018-09-26T18:12:00.432Z,33.57
2018-09-26T18:14:28.716Z,24.07
2018-09-26T18:16:57.007Z,29.73
2018-09-26T18:19:25.310Z,26.93
2018-09-26T18:21:53.583Z,41.23
2018-09-26T18:24:22.760Z,24.70
2018-09-26T18:26:51.125Z,29.67
2018-09-26T18:29:19.804Z,41.17
2018-09-26T18:31:48.136Z,30.13
2018-09-26T18:34:16.489Z,32.83
2018-09-26T18:36:44.816Z,31.57
2018-09-26T18:39:13.150Z,27.37
2018-09-26T18:41:41.508Z,31.37
2018-09-26T18:44:09.823Z,32.23
2018-09-26T18:46:38.144Z,25.50
2018-09-26T18:49:06.508Z,29.00
2018-09-26T18:51:34.813Z,23.33
2018-09-26T18:54:03.135Z,31.77
2018-09-26T18:56:31.488Z,44.23
2018-09-26T18:58:59.828Z,25.43
2018-09-26T19:01:28.705Z,22.43
2018-09-26T19:03:57.119Z,29.37
2018-09-26T19:06:25.639Z,35.07
2018-09-26T19:08:54.118Z,22.73
2018-09-26T19:11:22.948Z,23.67
2018-09-26T19:13:51.303Z,25.60
2018-09-26T19:16:19.624Z,19.77
2018-09-26T19:18:48.043Z,18.60
2018-09-26T19:21:16.408Z,25.43
2018-09-26T19:23:44.904Z,36.77
2018-09-26T19:26:13.363Z,31.50
2018-09-26T19:28:41.684Z,23.93
2018-09-26T19:31:10.008Z,17.33
2018-09-26T19:33:38.424Z,25.00
2018-09-26T19:36:06.771Z,21.60
2018-09-26T19:38:35.325Z,25.57
2018-09-26T19:41:03.717Z,28.77
2018-09-26T19:43:32.037Z,22.60
2018-09-26T19:46:00.413Z,27.80
2018-09-26T19:48:28.878Z,23.67
2018-09-26T19:50:57.363Z,20.47
2018-09-26T19:53:26.684Z,22.03
2018-09-26T19:55:55.114Z,24.30
2018-09-26T19:58:24.673Z,24.03
2018-09-26T20:00:52.869Z,18.93
2018-09-26T20:03:21.233Z,20.50
2018-09-26T20:05:49.557Z,21.07
2018-09-26T20:08:17.890Z,27.77
2018-09-26T20:10:46.268Z,18.77
2018-09-26T20:13:14.653Z,19.57
2018-09-26T20:15:42.984Z,17.30
2018-09-26T20:18:11.380Z,18.90
2018-09-26T20:20:39.717Z,21.77
2018-09-26T20:23:08.129Z,17.43
2018-09-26T20:25:36.512Z,16.73
2018-09-26T20:28:05.120Z,21.70
2018-09-26T20:30:33.484Z,16.73
2018-09-26T20:33:01.927Z,23.60
2018-09-26T20:35:30.281Z,20.47
2018-09-26T20:37:58.568Z,18.97
2018-09-26T20:40:26.916Z,20.90
2018-09-26T20:42:55.287Z,32.20
2018-09-26T20:45:23.705Z,26.10
2018-09-26T20:47:52.029Z,23.37
2018-09-26T20:50:20.345Z,24.37
2018-09-26T20:52:48.677Z,25.30
2018-09-26T20:55:17.049Z,25.33
2018-09-26T20:57:46.600Z,26.90
2018-09-26T21:00:14.932Z,26.90
2018-09-26T21:02:43.513Z,26.83
2018-09-26T21:05:12.037Z,32.47
2018-09-26T21:07:40.382Z,22.17
2018-09-26T21:10:09.113Z,24.10
2018-09-26T21:12:37.432Z,25.33
2018-09-26T21:15:06.121Z,29.23
2018-09-26T21:17:35.303Z,21.73
2018-09-26T21:20:03.812Z,27.97
2018-09-26T21:22:32.292Z,24.57
2018-09-26T21:25:01.024Z,16.60
2018-09-26T21:27:29.355Z,20.37
2018-09-26T21:29:58.157Z,19.50
2018-09-26T21:32:26.496Z,21.77
2018-09-26T21:34:54.857Z,20.30
2018-09-26T21:37:23.585Z,24.73
2018-09-26T21:39:51.957Z,27.30
2018-09-26T21:42:20.304Z,19.70
2018-09-26T21:44:48.625Z,18.40
2018-09-26T21:47:17.156Z,18.50
2018-09-26T21:49:45.514Z,19.70
2018-09-26T21:52:13.845Z,20.13
2018-09-26T21:54:42.204Z,20.20
2018-09-26T21:57:10.557Z,28.47
2018-09-26T21:59:38.881Z,24.97
2018-09-26T22:02:07.321Z,21.50
2018-09-26T22:04:35.644Z,29.30
2018-09-26T22:07:03.972Z,30.50
2018-09-26T22:09:32.452Z,22.60
2018-09-26T22:12:00.899Z,34.77
2018-09-26T22:14:29.236Z,28.13
2018-09-26T22:16:57.588Z,25.53
2018-09-26T22:19:25.937Z,20.30
2018-09-26T22:21:54.272Z,22.00
2018-09-26T22:24:22.660Z,15.07
2018-09-26T22:26:51.013Z,15.07
2018-09-26T22:29:19.354Z,18.00
2018-09-26T22:31:47.957Z,22.83
2018-09-26T22:34:16.277Z,15.30
2018-09-26T22:36:44.637Z,20.07
2018-09-26T22:39:12.972Z,15.93
2018-09-26T22:41:41.292Z,13.70
2018-09-26T22:44:09.663Z,15.90
2018-09-26T22:46:38.522Z,21.97
2018-09-26T22:49:06.865Z,14.47
2018-09-26T22:51:35.200Z,23.57
2018-09-26T22:54:03.683Z,10.27
2018-09-26T22:56:32.003Z,15.37
2018-09-26T22:59:00.385Z,18.33
2018-09-26T23:01:28.744Z,16.27
2018-09-26T23:03:57.071Z,12.37
2018-09-26T23:06:25.400Z,12.60
2018-09-26T23:08:53.992Z,12.80
2018-09-26T23:11:22.611Z,16.63
2018-09-26T23:13:50.927Z,11.27
2018-09-26T23:16:19.299Z,12.20
2018-09-26T23:18:47.635Z,18.40
2018-09-26T23:21:15.956Z,18.97
2018-09-26T23:23:44.293Z,13.63
2018-09-26T23:26:12.611Z,15.87
2018-09-26T23:28:40.940Z,14.80
2018-09-26T23:31:09.315Z,15.57
2018-09-26T23:33:37.873Z,16.77
2018-09-26T23:36:06.250Z,13.30
2018-09-26T23:38:34.616Z,20.43
2018-09-26T23:41:02.949Z,21.03
2018-09-26T23:43:31.285Z,18.33
2018-09-26T23:45:59.756Z,10.93
2018-09-26T23:48:28.112Z,16.30
2018-09-26T23:50:56.452Z,20.47
2018-09-26T23:53:24.831Z,21.57
2018-09-26T23:55:53.139Z,13.60
2018-09-26T23:58:21.485Z,22.07
